createdAt,value
2018-07-03T00:00:32.664Z,87.93
2018-07-03T00:03:01.077Z,86.71
2018-07-03T00:05:29.536Z,87.82
2018-07-03T00:07:58.087Z,84.92
2018-07-03T00:10:26.826Z,85.31
2018-07-03T00:12:55.254Z,87.55
2018-07-03T00:15:23.680Z,83.73
2018-07-03T00:17:52.159Z,84.81
2018-07-03T00:21:49.885Z,84.24
2018-07-03T00:24:18.327Z,84.55
2018-07-03T00:26:46.751Z,85.02
2018-07-03T00:29:15.176Z,89.62
2018-07-03T00:31:43.600Z,90.15
2018-07-03T00:34:12.043Z,90.29
2018-07-03T00:36:40.469Z,89.36
2018-07-03T00:39:09.727Z,89.72
2018-07-03T00:41:38.163Z,91.93
2018-07-03T00:44:06.590Z,91.29
2018-07-03T00:46:35.028Z,89.42
2018-07-03T00:49:03.535Z,90.54
2018-07-03T00:51:31.942Z,91.40
2018-07-03T00:54:00.390Z,91.24
2018-07-03T00:56:28.823Z,89.77
2018-07-03T00:58:57.337Z,93.93
2018-07-03T01:01:25.767Z,91.45
2018-07-03T01:06:14.590Z,91.61
2018-07-03T01:08:43.034Z,92.56
2018-07-03T01:11:11.513Z,91.68
2018-07-03T01:13:39.919Z,94.29
2018-07-03T01:16:08.411Z,93.84
2018-07-03T01:18:36.899Z,94.99
2018-07-03T01:21:05.413Z,96.38
2018-07-03T01:23:33.895Z,95.75
2018-07-03T01:26:02.320Z,96.77
2018-07-03T01:28:30.772Z,96.15
2018-07-03T01:30:59.183Z,95.12
2018-07-03T01:33:27.583Z,93.47
2018-07-03T01:35:56.350Z,96.34
2018-07-03T01:38:24.963Z,96.51
2018-07-03T01:40:53.387Z,96.89
2018-07-03T01:43:21.830Z,97.93
2018-07-03T01:45:50.311Z,96.20
2018-07-03T01:48:18.785Z,99.56
2018-07-03T01:50:47.217Z,99.61
2018-07-03T01:53:16.110Z,99.58
2018-07-03T01:55:44.913Z,99.63
2018-07-03T01:58:13.550Z,99.19
2018-07-03T02:00:41.988Z,100.00
2018-07-03T02:03:10.403Z,99.81
2018-07-03T02:05:38.873Z,99.28
2018-07-03T02:08:07.302Z,100.00
2018-07-03T02:10:35.740Z,100.00
2018-07-03T02:13:04.197Z,100.00
2018-07-03T02:15:32.656Z,100.00
2018-07-03T02:18:01.118Z,100.00
2018-07-03T02:20:29.552Z,100.00
2018-07-03T02:22:58.012Z,100.00
2018-07-03T02:25:26.451Z,100.00
2018-07-03T02:27:54.945Z,100.00
2018-07-03T02:30:23.384Z,100.00
2018-07-03T02:32:52.192Z,100.00
2018-07-03T02:35:20.652Z,100.00
2018-07-03T02:37:49.071Z,100.00
2018-07-03T02:40:17.725Z,100.00
2018-07-03T02:42:46.147Z,100.00
2018-07-03T02:45:14.555Z,100.00
2018-07-03T02:47:43.017Z,100.00
2018-07-03T02:50:11.464Z,100.00
2018-07-03T02:52:39.940Z,100.00
2018-07-03T02:55:08.340Z,100.00
2018-07-03T02:57:36.859Z,100.00
2018-07-03T03:00:06.110Z,100.00
2018-07-03T03:02:34.541Z,100.00
2018-07-03T03:05:03.003Z,100.00
2018-07-03T03:07:31.456Z,100.00
2018-07-03T03:09:59.917Z,100.00
2018-07-03T03:12:28.324Z,100.00
2018-07-03T03:14:56.780Z,100.00
2018-07-03T03:17:25.251Z,100.00
2018-07-03T03:19:53.967Z,100.00
2018-07-03T03:22:22.468Z,100.00
2018-07-03T03:24:50.884Z,100.00
2018-07-03T03:27:19.306Z,100.00
2018-07-03T03:29:47.799Z,100.00
2018-07-03T03:32:16.229Z,100.00
2018-07-03T03:34:44.654Z,100.00
2018-07-03T03:37:13.080Z,97.89
2018-07-03T03:39:41.507Z,98.26
2018-07-03T03:42:09.968Z,100.00
2018-07-03T03:44:38.447Z,100.00
2018-07-03T03:47:07.571Z,100.00
2018-07-03T03:49:35.997Z,100.00
2018-07-03T03:52:04.447Z,100.00
2018-07-03T03:54:32.920Z,100.00
2018-07-03T03:57:01.507Z,100.00
2018-07-03T03:59:30.044Z,100.00
2018-07-03T04:01:58.600Z,100.00
2018-07-03T04:04:27.307Z,100.00
2018-07-03T04:06:55.747Z,100.00
2018-07-03T04:09:24.175Z,100.00
2018-07-03T04:11:52.970Z,100.00
2018-07-03T04:14:21.452Z,100.00
2018-07-03T04:16:49.932Z,100.00
2018-07-03T04:19:18.372Z,100.00
2018-07-03T04:21:46.859Z,100.00
2018-07-03T04:24:15.278Z,100.00
2018-07-03T04:26:43.707Z,100.00
2018-07-03T04:29:12.192Z,100.00
2018-07-03T04:31:40.631Z,100.00
2018-07-03T04:34:09.147Z,100.00
2018-07-03T04:36:37.543Z,100.00
2018-07-03T04:39:09.114Z,100.00
2018-07-03T04:41:37.748Z,100.00
2018-07-03T04:44:06.462Z,100.00
2018-07-03T04:46:34.900Z,100.00
2018-07-03T04:49:03.398Z,100.00
2018-07-03T04:51:32.019Z,100.00
2018-07-03T04:54:00.442Z,100.00
2018-07-03T04:56:28.878Z,100.00
2018-07-03T04:58:57.348Z,100.00
2018-07-03T05:01:25.891Z,99.42
2018-07-03T05:03:54.334Z,97.57
2018-07-03T05:06:23.086Z,94.37
2018-07-03T05:08:51.522Z,95.70
2018-07-03T05:11:19.962Z,99.04
2018-07-03T05:13:48.370Z,95.95
2018-07-03T05:16:17.137Z,95.05
2018-07-03T05:18:45.796Z,95.61
2018-07-03T05:21:14.198Z,92.94
2018-07-03T05:23:42.632Z,94.05
2018-07-03T05:26:11.043Z,90.92
2018-07-03T05:28:39.588Z,90.50
2018-07-03T05:31:08.270Z,91.77
2018-07-03T05:33:36.718Z,89.82
2018-07-03T05:36:05.410Z,89.56
2018-07-03T05:38:33.851Z,89.54
2018-07-03T05:41:02.280Z,90.24
2018-07-03T05:43:30.735Z,88.03
2018-07-03T05:45:59.245Z,87.08
2018-07-03T05:48:27.634Z,86.48
2018-07-03T05:50:56.053Z,83.86
2018-07-03T05:53:24.511Z,85.80
2018-07-03T05:55:52.927Z,80.28
2018-07-03T05:58:21.393Z,82.35
2018-07-03T06:00:49.853Z,85.70
2018-07-03T06:03:18.441Z,81.12
2018-07-03T06:05:46.897Z,80.00
2018-07-03T06:08:15.338Z,80.10
2018-07-03T06:10:43.992Z,79.59
2018-07-03T06:13:12.643Z,80.51
2018-07-03T06:15:41.088Z,78.17
2018-07-03T06:18:09.515Z,78.99
2018-07-03T06:20:37.916Z,76.85
2018-07-03T06:23:06.359Z,77.17
2018-07-03T06:25:34.904Z,75.02
2018-07-03T06:28:03.553Z,75.91
2018-07-03T06:30:32.016Z,75.03
2018-07-03T06:33:00.442Z,73.19
2018-07-03T06:35:28.879Z,73.59
2018-07-03T06:37:57.360Z,72.62
2018-07-03T06:40:25.856Z,71.68
2018-07-03T06:42:54.307Z,70.99
2018-07-03T06:45:22.752Z,70.07
2018-07-03T06:47:51.203Z,69.81
2018-07-03T06:50:19.643Z,68.56
2018-07-03T06:52:48.069Z,68.10
2018-07-03T06:55:16.545Z,69.79
2018-07-03T06:57:45.064Z,70.15
2018-07-03T07:00:13.511Z,67.92
2018-07-03T07:02:42.110Z,67.83
2018-07-03T07:05:10.531Z,67.86
2018-07-03T07:07:39.008Z,67.17
2018-07-03T07:10:08.441Z,69.21
2018-07-03T07:12:36.900Z,67.57
2018-07-03T07:15:05.993Z,67.91
2018-07-03T07:17:34.573Z,67.03
2018-07-03T07:20:03.033Z,66.68
2018-07-03T07:22:31.477Z,66.67
2018-07-03T07:24:59.896Z,65.30
2018-07-03T07:27:28.495Z,66.18
2018-07-03T07:29:57.127Z,66.63
2018-07-03T07:32:25.583Z,67.45
2018-07-03T07:34:54.015Z,66.31
2018-07-03T07:37:22.475Z,67.47
2018-07-03T07:39:50.923Z,66.57
2018-07-03T07:42:19.396Z,66.64
2018-07-03T07:44:47.844Z,66.27
2018-07-03T07:47:16.403Z,66.28
2018-07-03T07:49:44.812Z,65.95
2018-07-03T07:52:13.303Z,65.69
2018-07-03T07:54:41.758Z,67.40
2018-07-03T07:57:10.216Z,66.49
2018-07-03T07:59:38.927Z,65.55
2018-07-03T08:02:07.710Z,66.13
2018-07-03T08:04:36.119Z,67.70
2018-07-03T08:07:04.624Z,66.66
2018-07-03T08:09:33.067Z,65.95
2018-07-03T08:12:01.500Z,66.75
2018-07-03T08:14:29.943Z,64.74
2018-07-03T08:16:58.343Z,63.63
2018-07-03T08:19:26.862Z,63.41
2018-07-03T08:21:55.582Z,62.72
2018-07-03T08:24:24.017Z,63.66
2018-07-03T08:26:52.414Z,62.97
2018-07-03T08:29:20.868Z,61.79
2018-07-03T08:31:49.292Z,60.42
2018-07-03T08:34:17.756Z,62.62
2018-07-03T08:36:46.256Z,60.13
2018-07-03T08:39:14.686Z,60.48
2018-07-03T08:41:43.159Z,60.04
2018-07-03T08:44:11.571Z,59.16
2018-07-03T08:46:40.159Z,58.39
2018-07-03T08:49:08.942Z,58.92
2018-07-03T08:51:37.895Z,58.77
2018-07-03T08:54:06.618Z,58.26
2018-07-03T08:56:35.036Z,57.32
2018-07-03T08:59:03.751Z,58.02
2018-07-03T09:01:32.174Z,57.51
2018-07-03T09:04:00.834Z,54.34
2018-07-03T09:06:29.276Z,57.18
2018-07-03T09:08:57.680Z,55.72
2018-07-03T09:11:26.166Z,56.73
2018-07-03T09:13:54.604Z,55.05
2018-07-03T09:16:23.126Z,56.52
2018-07-03T09:18:51.722Z,55.83
2018-07-03T09:21:20.156Z,55.47
2018-07-03T09:23:48.583Z,54.09
2018-07-03T09:26:17.159Z,51.86
2018-07-03T09:28:45.639Z,53.47
2018-07-03T09:31:14.227Z,54.18
2018-07-03T09:33:42.684Z,53.00
2018-07-03T09:36:11.155Z,50.98
2018-07-03T09:38:39.698Z,52.27
2018-07-03T09:41:08.267Z,52.82
2018-07-03T09:43:36.685Z,52.55
2018-07-03T09:46:05.454Z,50.36
2018-07-03T09:48:34.139Z,50.50
2018-07-03T09:51:02.580Z,49.86
2018-07-03T09:53:31.027Z,49.43
2018-07-03T09:55:59.472Z,46.72
2018-07-03T09:58:27.966Z,45.84
2018-07-03T10:00:57.236Z,41.95
2018-07-03T10:03:27.136Z,45.42
2018-07-03T10:05:58.266Z,46.67
2018-07-03T10:09:56.838Z,44.58
2018-07-03T10:12:25.276Z,38.50
2018-07-03T10:14:53.765Z,36.30
2018-07-03T10:17:22.480Z,36.87
2018-07-03T10:19:50.919Z,35.86
2018-07-03T10:22:19.308Z,35.55
2018-07-03T10:24:47.969Z,36.44
2018-07-03T10:27:16.363Z,37.16
2018-07-03T10:29:44.788Z,35.56
2018-07-03T10:32:13.239Z,37.07
2018-07-03T10:34:41.695Z,40.01
2018-07-03T10:37:10.093Z,36.48
2018-07-03T10:39:38.492Z,37.11
2018-07-03T10:42:07.414Z,36.54
2018-07-03T10:44:35.787Z,36.83
2018-07-03T10:47:04.188Z,35.37
2018-07-03T10:49:32.607Z,34.72
2018-07-03T10:52:01.002Z,35.14
2018-07-03T10:54:29.471Z,36.40
2018-07-03T10:56:58.119Z,38.87
2018-07-03T10:59:26.812Z,35.48
2018-07-03T11:01:55.264Z,38.74
2018-07-03T11:04:23.895Z,37.28
2018-07-03T11:06:52.317Z,37.45
2018-07-03T11:09:20.742Z,35.09
2018-07-03T11:11:49.198Z,35.00
2018-07-03T11:14:17.751Z,37.20
2018-07-03T11:16:46.132Z,36.08
2018-07-03T11:19:14.566Z,33.86
2018-07-03T11:21:42.988Z,32.10
2018-07-03T11:24:11.706Z,34.34
2018-07-03T11:26:40.111Z,36.24
2018-07-03T11:29:09.123Z,35.64
2018-07-03T11:31:37.579Z,33.45
2018-07-03T11:34:06.335Z,31.73
2018-07-03T11:36:34.775Z,30.96
2018-07-03T11:39:04.003Z,32.17
2018-07-03T11:41:32.407Z,32.54
2018-07-03T11:44:00.880Z,32.35
2018-07-03T11:46:29.391Z,34.55
2018-07-03T11:48:57.846Z,34.03
2018-07-03T11:51:26.803Z,32.05
2018-07-03T11:53:55.204Z,28.56
2018-07-03T11:56:23.857Z,33.23
2018-07-03T11:58:52.590Z,31.04
2018-07-03T12:01:21.106Z,28.67
2018-07-03T12:03:49.643Z,29.00
2018-07-03T12:06:18.080Z,29.46
2018-07-03T12:08:46.480Z,25.10
2018-07-03T12:11:14.998Z,28.93
2018-07-03T12:13:43.446Z,26.21
2018-07-03T12:16:11.903Z,26.80
2018-07-03T12:18:45.535Z,29.95
2018-07-03T12:21:14.179Z,28.04
2018-07-03T12:23:42.707Z,28.38
2018-07-03T12:26:11.235Z,23.83
2018-07-03T12:28:39.931Z,23.86
2018-07-03T12:31:08.351Z,28.44
2018-07-03T12:33:36.868Z,26.71
2018-07-03T12:36:06.752Z,27.01
2018-07-03T12:38:35.153Z,21.74
2018-07-03T12:41:03.581Z,22.61
2018-07-03T12:43:32.017Z,21.12
2018-07-03T12:46:00.486Z,21.33
2018-07-03T12:48:29.121Z,21.60
2018-07-03T12:50:57.552Z,22.83
2018-07-03T12:53:25.956Z,21.57
2018-07-03T12:55:54.599Z,23.52
2018-07-03T12:58:23.143Z,23.29
2018-07-03T13:00:51.694Z,24.68
2018-07-03T13:03:20.351Z,20.34
2018-07-03T13:05:48.804Z,24.51
2018-07-03T13:08:17.256Z,21.34
2018-07-03T13:10:45.904Z,19.46
2018-07-03T13:13:14.331Z,23.39
2018-07-03T13:15:42.800Z,21.75
2018-07-03T13:18:16.537Z,22.89
2018-07-03T13:20:44.926Z,22.58
2018-07-03T13:23:13.435Z,23.25
2018-07-03T13:25:41.823Z,19.09
2018-07-03T13:28:10.877Z,22.28
2018-07-03T13:30:39.688Z,22.21
2018-07-03T13:33:08.136Z,19.80
2018-07-03T13:35:36.692Z,20.87
2018-07-03T13:38:05.666Z,22.82
2018-07-03T13:40:34.154Z,21.08
2018-07-03T13:43:02.626Z,22.11
2018-07-03T13:45:31.036Z,20.65
2018-07-03T13:47:59.512Z,22.66
2018-07-03T13:50:27.946Z,22.08
2018-07-03T13:52:56.346Z,20.21
2018-07-03T13:55:24.791Z,19.66
2018-07-03T13:57:53.243Z,20.63
2018-07-03T14:00:21.687Z,18.97
2018-07-03T14:02:50.097Z,18.74
2018-07-03T14:05:18.557Z,19.07
2018-07-03T14:07:46.960Z,18.71
2018-07-03T14:10:15.578Z,19.54
2018-07-03T14:12:44.016Z,22.26
2018-07-03T14:15:12.619Z,23.07
2018-07-03T14:17:41.067Z,20.85
2018-07-03T14:20:09.486Z,21.70
2018-07-03T14:22:37.948Z,22.94
2018-07-03T14:25:06.459Z,24.38
2018-07-03T14:27:34.856Z,21.26
2018-07-03T14:30:03.396Z,21.25
2018-07-03T14:32:31.919Z,20.27
2018-07-03T14:35:00.355Z,21.59
2018-07-03T14:37:28.767Z,25.78
2018-07-03T14:39:57.182Z,21.01
2018-07-03T14:42:25.606Z,20.82
2018-07-03T14:44:54.042Z,20.44
2018-07-03T14:47:22.968Z,22.42
2018-07-03T14:49:51.416Z,23.27
2018-07-03T14:52:19.960Z,21.66
2018-07-03T14:54:48.795Z,22.41
2018-07-03T14:57:17.232Z,22.23
2018-07-03T14:59:45.707Z,22.20
2018-07-03T15:02:14.175Z,22.19
2018-07-03T15:04:42.745Z,23.27
2018-07-03T15:07:11.223Z,21.72
2018-07-03T15:09:39.652Z,22.08
2018-07-03T15:12:08.196Z,22.88
2018-07-03T15:14:36.602Z,21.77
2018-07-03T15:17:05.036Z,20.72
2018-07-03T15:19:38.840Z,22.65
2018-07-03T15:22:07.723Z,23.46
2018-07-03T15:24:36.430Z,22.82
2018-07-03T15:27:04.963Z,22.35
2018-07-03T15:29:33.397Z,23.10
2018-07-03T15:32:01.820Z,22.70
2018-07-03T15:34:30.287Z,21.15
2018-07-03T15:36:58.712Z,21.98
2018-07-03T15:39:27.464Z,21.73
2018-07-03T15:41:55.865Z,22.43
2018-07-03T15:44:35.440Z,21.41
2018-07-03T15:47:03.970Z,20.66
2018-07-03T15:49:32.520Z,22.42
2018-07-03T15:52:00.950Z,22.46
2018-07-03T15:54:29.331Z,21.92
2018-07-03T15:56:57.807Z,21.36
2018-07-03T15:59:26.249Z,20.76
2018-07-03T16:01:54.677Z,21.03
2018-07-03T16:05:33.259Z,21.24
2018-07-03T16:08:11.191Z,20.53
2018-07-03T16:10:39.615Z,20.02
2018-07-03T16:13:08.032Z,20.21
2018-07-03T16:15:36.977Z,21.19
2018-07-03T16:18:05.753Z,21.11
2018-07-03T16:20:39.820Z,20.64
2018-07-03T16:23:08.908Z,23.20
2018-07-03T16:25:37.557Z,21.66
2018-07-03T16:28:06.219Z,20.51
2018-07-03T16:30:34.682Z,20.84
2018-07-03T16:33:03.055Z,21.08
2018-07-03T16:35:31.749Z,20.58
2018-07-03T16:38:00.390Z,22.40
2018-07-03T16:40:29.052Z,21.78
2018-07-03T16:42:57.739Z,20.07
2018-07-03T16:45:26.473Z,19.89
2018-07-03T16:47:55.395Z,20.21
2018-07-03T16:50:24.001Z,20.30
2018-07-03T16:52:52.546Z,19.12
2018-07-03T16:55:21.446Z,19.41
2018-07-03T16:57:50.741Z,20.06
2018-07-03T17:00:26.171Z,20.21
2018-07-03T17:02:54.707Z,20.13
2018-07-03T17:05:23.955Z,20.93
2018-07-03T17:07:52.535Z,20.24
2018-07-03T17:10:21.107Z,19.77
2018-07-03T17:12:49.849Z,20.26
2018-07-03T17:15:18.221Z,20.81
2018-07-03T17:17:46.917Z,19.45
2018-07-03T17:20:15.608Z,22.52
2018-07-03T17:22:44.025Z,20.31
2018-07-03T17:25:12.505Z,20.16
2018-07-03T17:27:41.074Z,21.37
2018-07-03T17:30:09.596Z,21.88
2018-07-03T17:32:38.200Z,20.01
2018-07-03T17:35:06.890Z,20.46
2018-07-03T17:37:35.419Z,20.82
2018-07-03T17:40:15.009Z,20.93
2018-07-03T17:44:58.797Z,20.83
2018-07-03T17:47:27.318Z,21.20
2018-07-03T17:49:55.799Z,21.48
2018-07-03T17:52:24.209Z,21.22
2018-07-03T17:54:52.767Z,21.49
2018-07-03T17:57:21.455Z,21.23
2018-07-03T17:59:49.899Z,23.00
2018-07-03T18:02:18.340Z,23.26
2018-07-03T18:04:46.943Z,22.72
2018-07-03T18:07:15.520Z,23.76
2018-07-03T18:09:44.103Z,23.08
2018-07-03T18:12:12.856Z,24.24
2018-07-03T18:14:41.275Z,25.57
2018-07-03T18:17:10.988Z,23.52
2018-07-03T18:19:44.988Z,25.70
2018-07-03T18:22:13.425Z,26.52
2018-07-03T18:24:41.933Z,30.33
2018-07-03T18:27:11.214Z,29.03
2018-07-03T18:29:53.085Z,28.86
2018-07-03T18:32:23.852Z,29.94
2018-07-03T18:34:52.468Z,28.40
2018-07-03T18:37:20.916Z,29.55
2018-07-03T18:39:49.707Z,29.59
2018-07-03T18:42:18.183Z,30.12
2018-07-03T18:44:46.631Z,30.87
2018-07-03T18:47:16.302Z,31.33
2018-07-03T18:49:45.083Z,33.13
2018-07-03T18:52:13.548Z,34.00
2018-07-03T18:54:42.180Z,35.46
2018-07-03T18:57:11.472Z,35.56
2018-07-03T18:59:42.462Z,36.13
2018-07-03T19:02:13.803Z,36.00
2018-07-03T19:04:45.787Z,38.03
2018-07-03T19:07:14.376Z,37.61
2018-07-03T19:09:42.784Z,37.94
2018-07-03T19:12:11.169Z,38.22
2018-07-03T19:14:39.604Z,39.58
2018-07-03T19:17:08.421Z,38.97
2018-07-03T19:19:37.278Z,39.15
2018-07-03T19:22:06.032Z,39.80
2018-07-03T19:24:34.662Z,40.88
2018-07-03T19:27:03.053Z,42.04
2018-07-03T19:29:31.527Z,43.95
2018-07-03T19:31:59.989Z,45.79
2018-07-03T19:34:28.481Z,46.56
2018-07-03T19:36:56.876Z,46.25
2018-07-03T19:39:25.294Z,47.20
2018-07-03T19:43:38.789Z,47.13
2018-07-03T19:46:07.803Z,47.93
2018-07-03T19:48:36.230Z,47.99
2018-07-03T19:51:04.764Z,47.87
2018-07-03T19:53:33.170Z,48.66
2018-07-03T19:56:01.633Z,49.08
2018-07-03T19:58:30.351Z,48.41
2018-07-03T20:00:58.985Z,48.72
2018-07-03T20:03:27.465Z,49.02
2018-07-03T20:05:56.107Z,49.07
2018-07-03T20:08:24.540Z,49.54
2018-07-03T20:10:53.019Z,50.40
2018-07-03T20:13:21.468Z,51.67
2018-07-03T20:15:49.924Z,53.78
2018-07-03T20:18:18.578Z,52.35
2018-07-03T20:20:47.355Z,53.86
2018-07-03T20:23:15.803Z,54.16
2018-07-03T20:25:44.282Z,56.03
2018-07-03T20:28:12.691Z,58.21
2018-07-03T20:30:41.271Z,57.03
2018-07-03T20:33:09.766Z,55.36
2018-07-03T20:35:38.194Z,54.23
2018-07-03T20:38:07.353Z,56.48
2018-07-03T20:40:51.893Z,55.38
2018-07-03T20:43:20.562Z,56.53
2018-07-03T20:45:49.035Z,59.17
2018-07-03T20:48:17.498Z,60.52
2018-07-03T20:50:45.991Z,60.17
2018-07-03T20:53:14.968Z,61.62
2018-07-03T20:55:43.637Z,60.46
2018-07-03T20:58:12.198Z,59.56
2018-07-03T21:00:40.674Z,61.41
2018-07-03T21:03:09.352Z,62.04
2018-07-03T21:05:37.895Z,62.85
2018-07-03T21:08:07.294Z,63.91
2018-07-03T21:10:36.132Z,64.61
2018-07-03T21:13:04.504Z,64.30
2018-07-03T21:15:32.940Z,66.84
2018-07-03T21:18:01.374Z,66.08
2018-07-03T21:20:29.823Z,65.18
2018-07-03T21:22:58.306Z,66.12
2018-07-03T21:25:26.751Z,64.26
2018-07-03T21:27:55.170Z,66.50
2018-07-03T21:30:23.649Z,64.59
2018-07-03T21:32:52.104Z,65.63
2018-07-03T21:35:20.739Z,67.65
2018-07-03T21:37:49.139Z,69.69
2018-07-03T21:40:17.593Z,68.74
2018-07-03T21:42:46.047Z,71.47
2018-07-03T21:45:14.698Z,69.58
2018-07-03T21:47:43.165Z,68.90
2018-07-03T21:50:11.590Z,67.02
2018-07-03T21:52:40.466Z,68.43
2018-07-03T21:55:08.942Z,72.25
2018-07-03T21:57:37.568Z,69.67
2018-07-03T22:00:07.564Z,68.79
2018-07-03T22:02:36.595Z,71.73
2018-07-03T22:05:05.284Z,73.93
2018-07-03T22:07:33.802Z,74.74
2018-07-03T22:10:02.448Z,73.77
2018-07-03T22:12:31.188Z,73.98
2018-07-03T22:14:59.595Z,74.16
2018-07-03T22:17:28.024Z,72.28
2018-07-03T22:19:56.443Z,74.47
2018-07-03T22:24:52.253Z,80.72
2018-07-03T22:27:20.787Z,81.11
2018-07-03T22:29:49.146Z,78.24
2018-07-03T22:32:17.590Z,79.21
2018-07-03T22:34:46.061Z,81.56
2018-07-03T22:37:14.507Z,82.01
2018-07-03T22:39:42.931Z,82.77
2018-07-03T22:42:11.351Z,82.66
2018-07-03T22:44:39.793Z,83.84
2018-07-03T22:47:08.215Z,83.86
2018-07-03T22:49:36.664Z,85.20
2018-07-03T22:52:05.090Z,84.89
2018-07-03T22:54:33.495Z,86.04
2018-07-03T22:57:01.957Z,84.43
2018-07-03T22:59:30.347Z,84.33
2018-07-03T23:01:58.858Z,86.06
2018-07-03T23:04:27.269Z,86.96
2018-07-03T23:06:55.647Z,88.70
2018-07-03T23:09:24.331Z,90.75
2018-07-03T23:11:52.929Z,87.66
2018-07-03T23:14:21.402Z,87.33
2018-07-03T23:16:49.818Z,87.57
2018-07-03T23:19:18.223Z,86.61
2018-07-03T23:21:46.656Z,91.41
2018-07-03T23:24:15.037Z,92.16
2018-07-03T23:26:43.594Z,92.75
2018-07-03T23:29:12.026Z,92.05
2018-07-03T23:31:40.424Z,91.44
2018-07-03T23:34:08.855Z,92.58
2018-07-03T23:36:37.437Z,91.58
2018-07-03T23:39:08.940Z,91.20
2018-07-03T23:41:37.391Z,93.46
2018-07-03T23:44:05.967Z,95.43
2018-07-03T23:46:45.440Z,94.38
2018-07-03T23:49:25.049Z,95.11
2018-07-03T23:52:04.628Z,95.00
2018-07-03T23:54:44.305Z,98.94
2018-07-03T23:57:23.927Z,99.90
